createdAt,value
2018-02-06T00:00:43.253Z,0.17
2018-02-06T00:01:52.077Z,0.21
2018-02-06T00:03:00.903Z,0.24
2018-02-06T00:04:09.727Z,0.17
2018-02-06T00:05:18.552Z,0.13
2018-02-06T00:06:27.526Z,0.23
2018-02-06T00:07:36.351Z,0.18
2018-02-06T00:08:45.451Z,0.21
2018-02-06T00:09:54.275Z,0.14
2018-02-06T00:11:03.102Z,0.17
2018-02-06T00:12:12.228Z,0.18
2018-02-06T00:13:21.054Z,0.08
2018-02-06T00:14:29.880Z,0.11
2018-02-06T00:15:38.705Z,0.13
2018-02-06T00:16:47.531Z,0.2
2018-02-06T00:17:56.503Z,0.13
2018-02-06T00:19:05.330Z,0.11
2018-02-06T00:20:14.153Z,0.08
2018-02-06T00:21:23.256Z,0.11
2018-02-06T00:22:32.359Z,0.1
2018-02-06T00:23:41.186Z,0.11
2018-02-06T00:24:50.011Z,0.1
2018-02-06T00:25:58.837Z,0.13
2018-02-06T00:27:07.661Z,0.13
2018-02-06T00:28:16.488Z,0.11
2018-02-06T00:29:25.463Z,0.08
2018-02-06T00:30:34.289Z,0.1
2018-02-06T00:31:43.113Z,0.07
2018-02-06T00:32:51.944Z,0.1
2018-02-06T00:34:00.766Z,0.03
2018-02-06T00:35:09.893Z,0.04
2018-02-06T00:36:18.718Z,0.04
2018-02-06T00:37:27.543Z,0.02
2018-02-06T00:38:36.370Z,0.02
2018-02-06T00:39:45.197Z,0.08
2018-02-06T00:40:54.323Z,0.14
2018-02-06T00:42:03.152Z,0.18
2018-02-06T00:43:11.974Z,0.2
2018-02-06T00:44:20.800Z,0.11
2018-02-06T00:45:29.632Z,0.07
2018-02-06T00:46:38.455Z,0.11
2018-02-06T00:47:47.286Z,0.11
2018-02-06T00:48:56.112Z,0.08
2018-02-06T00:50:04.936Z,0.1
2018-02-06T00:51:13.763Z,0.04
2018-02-06T00:52:23.081Z,0.11
2018-02-06T00:53:31.907Z,0.08
2018-02-06T00:54:40.732Z,0.17
2018-02-06T00:55:49.555Z,0.17
2018-02-06T00:56:58.381Z,0.24
2018-02-06T00:58:07.358Z,0.23
2018-02-06T00:59:16.185Z,0.17
2018-02-06T01:00:25.011Z,0.18
2018-02-06T01:01:33.837Z,0.24
2018-02-06T01:02:42.662Z,0.21
2018-02-06T01:03:51.687Z,0.23
2018-02-06T01:05:00.511Z,0.17
2018-02-06T01:06:09.611Z,0.18
2018-02-06T01:07:18.438Z,0.18
2018-02-06T01:08:27.262Z,0.17
2018-02-06T01:09:36.190Z,0.18
2018-02-06T01:10:45.020Z,0.21
2018-02-06T01:11:53.842Z,0.2
2018-02-06T01:13:02.668Z,0.23
2018-02-06T01:14:11.494Z,0.17
2018-02-06T01:15:20.316Z,0.18
2018-02-06T01:16:29.142Z,0.18
2018-02-06T01:17:37.968Z,0.11
2018-02-06T01:18:46.793Z,0.08
2018-02-06T01:19:55.617Z,0.13
2018-02-06T01:21:05.022Z,0.15
2018-02-06T01:22:13.849Z,0.24
2018-02-06T01:23:22.676Z,0.17
2018-02-06T01:24:31.501Z,0.17
2018-02-06T01:25:40.322Z,0.13
2018-02-06T01:26:49.196Z,0.11
2018-02-06T01:27:58.020Z,0.14
2018-02-06T01:29:06.846Z,-0.03
2018-02-06T01:30:15.671Z,0.02
2018-02-06T01:31:24.498Z,0.04
2018-02-06T01:32:33.423Z,-0.01
2018-02-06T01:33:42.247Z,0
2018-02-06T01:34:51.072Z,-0.01
2018-02-06T01:35:59.900Z,0.02
2018-02-06T01:37:09.273Z,0.03
2018-02-06T01:38:18.539Z,-0.03
2018-02-06T01:39:27.364Z,0.08
2018-02-06T01:40:36.187Z,0.13
2018-02-06T01:41:45.289Z,0.14
2018-02-06T01:42:54.113Z,0.08
2018-02-06T01:44:02.939Z,0.04
2018-02-06T01:45:11.764Z,0.04
2018-02-06T01:46:20.591Z,0.17
2018-02-06T01:47:29.414Z,0.11
2018-02-06T01:48:38.238Z,0.1
2018-02-06T01:49:47.063Z,0
2018-02-06T01:50:55.888Z,0.07
2018-02-06T01:52:04.712Z,0.08
2018-02-06T01:53:13.536Z,0.15
2018-02-06T01:54:22.361Z,0.11
2018-02-06T01:55:31.287Z,0.14
2018-02-06T01:56:40.114Z,0.1
2018-02-06T01:57:48.936Z,0.13
2018-02-06T01:58:57.764Z,0.1
2018-02-06T02:00:06.590Z,0.14
2018-02-06T02:01:15.516Z,-0.05
2018-02-06T02:02:24.349Z,0
2018-02-06T02:03:33.447Z,0.08
2018-02-06T02:04:42.270Z,0.08
2018-02-06T02:05:51.096Z,0.03
2018-02-06T02:07:00.071Z,0
2018-02-06T02:08:08.894Z,-0.04
2018-02-06T02:09:17.718Z,0.02
2018-02-06T02:10:26.544Z,0.03
2018-02-06T02:11:35.368Z,0
2018-02-06T02:12:44.192Z,-0.04
2018-02-06T02:13:53.018Z,0.04
2018-02-06T02:15:01.844Z,0.08
2018-02-06T02:16:10.672Z,-0.07
2018-02-06T02:17:19.499Z,-0.07
2018-02-06T02:18:28.425Z,0.04
2018-02-06T02:19:37.246Z,0.03
2018-02-06T02:20:46.077Z,0.11
2018-02-06T02:21:55.446Z,0.08
2018-02-06T02:23:04.269Z,0.11
2018-02-06T02:24:13.346Z,0.08
2018-02-06T02:25:22.173Z,0.08
2018-02-06T02:26:31.095Z,0
2018-02-06T02:27:39.922Z,0.04
2018-02-06T02:28:48.748Z,0.03
2018-02-06T02:29:57.875Z,0.03
2018-02-06T02:31:06.699Z,0.1
2018-02-06T02:32:15.524Z,0
2018-02-06T02:33:24.350Z,0.04
2018-02-06T02:34:33.176Z,0.03
2018-02-06T02:35:41.999Z,-0.01
2018-02-06T02:36:50.822Z,0.03
2018-02-06T02:37:59.650Z,0.04
2018-02-06T02:39:08.476Z,-0.05
2018-02-06T02:40:17.298Z,-0.1
2018-02-06T02:41:26.498Z,0.04
2018-02-06T04:38:28.983Z,-0.67
2018-02-06T04:39:37.807Z,-0.69
2018-02-06T04:40:46.630Z,-0.62
2018-02-06T04:41:55.881Z,-0.76
2018-02-06T04:43:04.705Z,-0.79
2018-02-06T04:44:13.803Z,-0.69
2018-02-06T04:45:22.620Z,-0.86
2018-02-06T04:46:31.443Z,-0.7
2018-02-06T04:47:40.317Z,-0.79
2018-02-06T04:48:49.137Z,-0.91
2018-02-06T04:49:57.958Z,-0.97
2018-02-06T04:51:06.781Z,-0.94
2018-02-06T04:52:15.603Z,-0.97
2018-02-06T04:53:24.747Z,-0.98
2018-02-06T04:54:33.571Z,-0.92
2018-02-06T04:55:42.392Z,-0.98
2018-02-06T04:56:51.219Z,-0.94
2018-02-06T04:58:00.312Z,-0.91
2018-02-06T04:59:09.287Z,-0.97
2018-02-06T05:00:18.113Z,-1.1
2018-02-06T05:01:26.935Z,-1.05
2018-02-06T05:02:35.757Z,-1.1
2018-02-06T05:03:44.584Z,-0.99
2018-02-06T05:04:53.808Z,-1.05
2018-02-06T05:06:02.634Z,-1.01
2018-02-06T05:07:11.456Z,-1.15
2018-02-06T05:08:20.283Z,-1.13
2018-02-06T05:09:29.106Z,-1.19
2018-02-06T05:10:38.401Z,-1.19
2018-02-06T05:11:47.225Z,-1.16
2018-02-06T05:12:56.050Z,-1.16
2018-02-06T05:14:04.879Z,-1.13
2018-02-06T05:15:13.701Z,-1.13
2018-02-06T05:16:22.527Z,-1.16
2018-02-06T05:17:31.348Z,-1.1
2018-02-06T05:18:40.170Z,-1.1
2018-02-06T05:19:49.265Z,-1.1
2018-02-06T05:20:58.086Z,-1.16
2018-02-06T05:22:06.911Z,-1.16
2018-02-06T05:23:15.734Z,-1.15
2018-02-06T05:24:24.557Z,-1.31
2018-02-06T05:25:33.381Z,-1.34
2018-02-06T05:26:42.203Z,-1.41
2018-02-06T05:27:51.026Z,-1.28
2018-02-06T05:28:59.849Z,-1.4
2018-02-06T05:30:08.672Z,-1.34
2018-02-06T05:31:17.497Z,-1.38
2018-02-06T05:32:26.318Z,-1.38
2018-02-06T05:33:35.138Z,-1.35
2018-02-06T05:34:43.959Z,-1.37
2018-02-06T05:35:52.783Z,-1.34
2018-02-06T05:37:01.607Z,-1.4
2018-02-06T05:38:10.735Z,-1.34
2018-02-06T05:39:19.577Z,-1.4
2018-02-06T05:40:28.400Z,-1.41
2018-02-06T05:41:37.224Z,-1.43
2018-02-06T05:42:46.047Z,-1.31
2018-02-06T05:43:54.870Z,-1.38
2018-02-06T05:45:03.689Z,-1.37
2018-02-06T05:46:12.513Z,-1.41
2018-02-06T05:47:21.339Z,-1.54
2018-02-06T05:48:30.165Z,-1.41
2018-02-06T05:49:39.034Z,-1.46
2018-02-06T05:50:48.009Z,-1.49
2018-02-06T05:51:57.107Z,-1.48
2018-02-06T05:53:05.929Z,-1.51
2018-02-06T05:54:14.751Z,-1.46
2018-02-06T05:55:23.576Z,-1.48
2018-02-06T05:56:32.396Z,-1.54
2018-02-06T05:57:41.220Z,-1.49
2018-02-06T05:58:50.043Z,-1.54
2018-02-06T05:59:58.869Z,-1.61
2018-02-06T06:01:07.694Z,-1.58
2018-02-06T06:02:16.514Z,-1.56
2018-02-06T06:03:25.334Z,-1.59
2018-02-06T06:04:34.159Z,-1.69
2018-02-06T06:05:42.980Z,-1.61
2018-02-06T06:06:51.803Z,-1.55
2018-02-06T06:08:00.726Z,-1.55
2018-02-06T06:09:09.550Z,-1.59
2018-02-06T06:10:18.374Z,-1.66
2018-02-06T06:11:27.197Z,-1.62
2018-02-06T06:12:36.023Z,-1.69
2018-02-06T06:13:44.845Z,-1.69
2018-02-06T06:14:53.666Z,-1.62
2018-02-06T06:16:02.491Z,-1.66
2018-02-06T06:17:11.313Z,-1.77
2018-02-06T06:18:20.137Z,-1.8
2018-02-06T06:19:28.959Z,-1.87
2018-02-06T06:20:37.782Z,-1.79
2018-02-06T06:21:46.609Z,-1.8
2018-02-06T06:22:55.719Z,-1.77
2018-02-06T06:24:04.532Z,-1.77
2018-02-06T06:25:13.353Z,-1.72
2018-02-06T06:26:22.173Z,-1.69
2018-02-06T06:27:30.998Z,-1.73
2018-02-06T06:28:39.820Z,-1.77
2018-02-06T06:29:48.643Z,-1.8
2018-02-06T06:30:57.500Z,-1.85
2018-02-06T06:32:06.320Z,-1.87
2018-02-06T06:33:15.142Z,-1.87
2018-02-06T06:34:23.964Z,-1.85
2018-02-06T06:35:32.788Z,-1.9
2018-02-06T06:36:41.880Z,-1.84
2018-02-06T06:37:50.705Z,-1.84
2018-02-06T06:38:59.582Z,-1.92
2018-02-06T06:40:08.405Z,-1.84
2018-02-06T06:41:17.224Z,-1.82
2018-02-06T06:42:26.051Z,-1.79
2018-02-06T06:43:34.870Z,-1.8
2018-02-06T06:44:43.692Z,-1.84
2018-02-06T06:45:52.795Z,-1.91
2018-02-06T06:47:01.617Z,-1.88
2018-02-06T06:48:10.442Z,-1.9
2018-02-06T06:49:19.263Z,-1.94
2018-02-06T06:50:28.138Z,-1.92
2018-02-06T06:51:36.959Z,-2
2018-02-06T06:52:45.780Z,-1.9
2018-02-06T06:53:54.608Z,-1.84
2018-02-06T06:55:03.474Z,-1.88
2018-02-06T06:56:12.251Z,-1.88
2018-02-06T06:57:21.076Z,-1.9
2018-02-06T06:58:29.897Z,-1.88
2018-02-06T06:59:38.722Z,-1.88
2018-02-06T07:00:47.827Z,-1.98
2018-02-06T07:01:56.800Z,-1.95
2018-02-06T07:03:05.622Z,-1.85
2018-02-06T07:04:14.448Z,-1.98
2018-02-06T07:05:23.269Z,-1.94
2018-02-06T07:06:32.091Z,-1.94
2018-02-06T07:07:41.214Z,-1.97
2018-02-06T07:08:50.039Z,-1.94
2018-02-06T07:09:58.865Z,-1.9
2018-02-06T07:11:07.683Z,-1.91
2018-02-06T07:12:16.504Z,-1.94
2018-02-06T07:13:25.477Z,-1.94
2018-02-06T07:14:34.366Z,-1.92
2018-02-06T07:15:43.224Z,-1.95
2018-02-06T07:16:52.044Z,-2
2018-02-06T07:18:00.867Z,-1.97
2018-02-06T07:19:09.792Z,-2.03
2018-02-06T07:20:18.614Z,-2.05
2018-02-06T07:21:27.457Z,-2.03
2018-02-06T07:22:36.263Z,-2.02
2018-02-06T07:23:45.086Z,-2.02
2018-02-06T07:24:54.057Z,-2.1
2018-02-06T07:26:02.881Z,-2.09
2018-02-06T07:27:11.704Z,-2.12
2018-02-06T07:28:20.526Z,-2.08
2018-02-06T07:29:29.359Z,-2.05
2018-02-06T07:30:38.284Z,-2.12
2018-02-06T07:31:47.156Z,-2.09
2018-02-06T07:32:55.982Z,-2.06
2018-02-06T07:34:04.801Z,-2.09
2018-02-06T07:35:13.843Z,-2.12
2018-02-06T07:36:22.723Z,-2.06
2018-02-06T07:37:31.820Z,-2.1
2018-02-06T07:38:40.764Z,-2.09
2018-02-06T07:39:49.628Z,-2.2
2018-02-06T07:40:58.449Z,-2.13
2018-02-06T07:42:07.573Z,-2.08
2018-02-06T07:43:16.416Z,-2.1
2018-02-06T07:44:25.238Z,-2.05
2018-02-06T07:45:34.058Z,-2.12
2018-02-06T07:46:42.883Z,-2.13
2018-02-06T07:47:51.753Z,-2.06
2018-02-06T07:49:00.851Z,-2.09
2018-02-06T07:50:09.948Z,-2.05
2018-02-06T07:51:18.987Z,-2.23
2018-02-06T07:52:27.857Z,-2.12
2018-02-06T07:53:37.088Z,-2.05
2018-02-06T07:54:46.184Z,-2.09
2018-02-06T07:55:55.005Z,-2.09
2018-02-06T07:57:03.830Z,-2.09
2018-02-06T07:58:12.651Z,-2.09
2018-02-06T07:59:21.847Z,-2.09
2018-02-06T08:00:30.670Z,-2.05
2018-02-06T08:01:39.781Z,-1.95
2018-02-06T08:02:48.608Z,-2.13
2018-02-06T08:03:57.469Z,-2
2018-02-06T08:05:06.297Z,-2.16
2018-02-06T08:06:15.114Z,-2.05
2018-02-06T08:07:23.938Z,-2.1
2018-02-06T08:08:33.049Z,-2.09
2018-02-06T08:09:41.873Z,-1.98
2018-02-06T08:10:50.699Z,-2.02
2018-02-06T08:12:00.787Z,-1.94
2018-02-06T08:13:09.614Z,-1.85
2018-02-06T08:14:18.713Z,-1.87
2018-02-06T08:15:27.613Z,-1.88
2018-02-06T08:16:36.493Z,-1.91
2018-02-06T08:17:46.451Z,-1.92
2018-02-06T08:18:55.617Z,-1.92
2018-02-06T08:20:04.442Z,-1.97
2018-02-06T08:21:13.275Z,-1.92
2018-02-06T08:22:22.096Z,-1.87
2018-02-06T08:23:30.921Z,-1.82
2018-02-06T08:24:39.744Z,-1.77
2018-02-06T08:25:48.569Z,-1.82
2018-02-06T08:26:57.394Z,-1.8
2018-02-06T08:28:06.516Z,-1.8
2018-02-06T08:29:15.340Z,-1.77
2018-02-06T08:30:24.440Z,-1.8
2018-02-06T08:31:33.261Z,-1.76
2018-02-06T08:32:42.084Z,-1.77
2018-02-06T08:33:50.909Z,-1.77
2018-02-06T08:34:59.733Z,-1.82
2018-02-06T08:36:08.554Z,-1.82
2018-02-06T08:37:17.375Z,-1.7
2018-02-06T08:38:26.199Z,-1.7
2018-02-06T08:39:35.447Z,-1.74
2018-02-06T08:40:44.268Z,-1.73
2018-02-06T08:41:53.093Z,-1.59
2018-02-06T08:43:01.919Z,-1.66
2018-02-06T08:44:10.741Z,-1.55
2018-02-06T08:45:19.664Z,-1.58
2018-02-06T08:46:28.486Z,-1.58
2018-02-06T08:47:37.309Z,-1.55
2018-02-06T08:48:46.136Z,-1.51
2018-02-06T08:49:54.953Z,-1.51
2018-02-06T08:51:04.182Z,-1.49
2018-02-06T08:52:13.003Z,-1.51
2018-02-06T08:53:22.101Z,-1.51
2018-02-06T08:54:30.925Z,-1.43
2018-02-06T08:55:39.751Z,-1.33
2018-02-06T08:56:48.574Z,-1.46
2018-02-06T08:57:57.398Z,-1.4
2018-02-06T08:59:06.222Z,-1.38
2018-02-06T09:00:15.044Z,-1.41
2018-02-06T09:01:23.865Z,-1.35
2018-02-06T09:02:33.061Z,-1.37
2018-02-06T09:03:41.882Z,-1.37
2018-02-06T09:04:50.705Z,-1.37
2018-02-06T09:05:59.529Z,-1.3
2018-02-06T09:07:08.353Z,-1.2
2018-02-06T09:08:17.228Z,-1.27
2018-02-06T09:09:26.050Z,-1.2
2018-02-06T09:10:34.876Z,-1.22
2018-02-06T09:11:43.699Z,-1.15
2018-02-06T09:12:52.525Z,-1.22
2018-02-06T09:14:01.550Z,-1.17
2018-02-06T09:15:10.372Z,-1.25
2018-02-06T09:16:19.203Z,-1.17
2018-02-06T09:17:28.021Z,-1.15
2018-02-06T09:18:36.846Z,-1.2
2018-02-06T09:19:45.718Z,-1.1
2018-02-06T09:20:54.544Z,-1.09
2018-02-06T09:22:03.367Z,-1.07
2018-02-06T09:23:12.195Z,-1.01
2018-02-06T09:24:21.019Z,-0.97
2018-02-06T09:25:29.888Z,-1.09
2018-02-06T09:26:38.715Z,-0.95
2018-02-06T09:27:47.537Z,-0.94
2018-02-06T09:28:56.369Z,-0.89
2018-02-06T09:30:05.466Z,-0.79
2018-02-06T09:31:14.439Z,-0.85
2018-02-06T09:32:23.261Z,-0.75
2018-02-06T09:33:32.362Z,-0.76
2018-02-06T09:34:41.185Z,-0.78
2018-02-06T09:35:50.011Z,-0.83
2018-02-06T09:36:58.985Z,-0.69
2018-02-06T09:38:07.808Z,-0.7
2018-02-06T09:39:16.637Z,-0.7
2018-02-06T09:40:25.456Z,-0.64
2018-02-06T09:41:34.280Z,-0.61
2018-02-06T09:42:43.104Z,-0.58
2018-02-06T09:43:51.928Z,-0.6
2018-02-06T09:45:00.751Z,-0.64
2018-02-06T09:46:09.578Z,-0.46
2018-02-06T09:47:18.401Z,-0.47
2018-02-06T09:48:27.276Z,-0.49
2018-02-06T09:49:36.102Z,-0.58
2018-02-06T09:50:44.927Z,-0.49
2018-02-06T09:51:53.750Z,-0.51
2018-02-06T09:53:02.574Z,-0.51
2018-02-06T09:54:11.400Z,-0.46
2018-02-06T09:55:20.223Z,-0.4
2018-02-06T09:56:29.054Z,-0.37
2018-02-06T09:57:37.875Z,-0.42
2018-02-06T09:58:46.697Z,-0.31
2018-02-06T09:59:55.895Z,-0.28
2018-02-06T10:01:04.721Z,-0.36
2018-02-06T10:02:13.819Z,-0.31
2018-02-06T10:03:22.644Z,-0.25
2018-02-06T10:04:31.469Z,-0.18
2018-02-06T10:05:40.394Z,-0.19
2018-02-06T10:06:49.493Z,-0.23
2018-02-06T10:07:58.369Z,-0.25
2018-02-06T10:09:07.310Z,-0.22
2018-02-06T10:10:16.221Z,-0.22
2018-02-06T10:11:25.231Z,-0.23
2018-02-06T10:12:34.416Z,-0.22
2018-02-06T10:13:43.342Z,-0.23
2018-02-06T10:14:52.402Z,-0.16
2018-02-06T10:16:01.283Z,-0.14
2018-02-06T10:17:10.432Z,-0.14
2018-02-06T10:18:19.832Z,-0.15
2018-02-06T10:19:28.700Z,-0.15
2018-02-06T10:20:37.634Z,0.07
2018-02-06T10:21:46.511Z,0.03
2018-02-06T10:22:55.649Z,0.03
2018-02-06T10:24:04.515Z,0.02
2018-02-06T10:25:13.514Z,0.07
2018-02-06T10:26:22.381Z,-0.05
2018-02-06T10:27:31.330Z,0
2018-02-06T10:28:40.680Z,0.08
2018-02-06T10:29:49.520Z,0.14
2018-02-06T10:30:58.619Z,-0.04
2018-02-06T10:32:07.443Z,-0.07
2018-02-06T10:33:16.645Z,0
2018-02-06T10:34:25.658Z,-0.05
2018-02-06T10:35:34.555Z,-0.03
2018-02-06T10:36:43.478Z,-0.11
2018-02-06T10:37:52.392Z,-0.05
2018-02-06T10:39:01.264Z,0.08
2018-02-06T10:40:10.338Z,-0.05
2018-02-06T10:41:19.195Z,-0.04
2018-02-06T10:42:28.270Z,0.1
2018-02-06T10:43:37.165Z,0.13
2018-02-06T10:44:46.080Z,0.23
2018-02-06T10:45:55.203Z,0.2
2018-02-06T10:47:04.143Z,0.17
2018-02-06T10:48:13.029Z,0.24
2018-02-06T10:49:22.074Z,0.24
2018-02-06T10:50:31.250Z,0.26
2018-02-06T10:51:40.236Z,0.35
2018-02-06T10:52:49.140Z,0.39
2018-02-06T10:53:58.025Z,0.32
2018-02-06T10:55:07.150Z,0.39
2018-02-06T10:56:15.973Z,0.38
2018-02-06T10:57:25.228Z,0.32
2018-02-06T10:58:34.485Z,0.35
2018-02-06T10:59:43.769Z,0.32
2018-02-06T11:00:52.656Z,0.38
2018-02-06T11:02:01.740Z,0.46
2018-02-06T11:03:10.815Z,0.42
2018-02-06T11:04:19.753Z,0.44
2018-02-06T11:05:28.896Z,0.38
2018-02-06T11:06:37.727Z,0.36
2018-02-06T11:07:46.552Z,0.31
2018-02-06T11:08:55.576Z,0.44
2018-02-06T11:10:04.401Z,0.39
2018-02-06T11:11:13.231Z,0.38
2018-02-06T11:12:22.056Z,0.5
2018-02-06T11:13:30.882Z,0.38
2018-02-06T11:14:39.856Z,0.39
2018-02-06T11:15:48.711Z,0.39
2018-02-06T11:16:57.890Z,0.41
2018-02-06T11:18:07.161Z,0.44
2018-02-06T11:19:16.086Z,0.42
2018-02-06T11:20:25.425Z,0.62
2018-02-06T11:21:34.416Z,0.41
2018-02-06T11:22:43.361Z,0.36
2018-02-06T11:23:52.532Z,0.36
2018-02-06T11:25:01.414Z,0.36
2018-02-06T11:26:10.761Z,0.42
2018-02-06T11:27:19.630Z,0.5
2018-02-06T11:28:28.454Z,0.44
2018-02-06T11:29:37.297Z,0.51
2018-02-06T11:30:46.217Z,0.5
2018-02-06T11:31:55.289Z,0.39
2018-02-06T11:33:04.225Z,0.42
2018-02-06T11:34:13.131Z,0.47
2018-02-06T11:35:22.113Z,0.46
2018-02-06T11:36:31.065Z,0.53
2018-02-06T11:37:40.510Z,0.5
2018-02-06T11:38:49.402Z,0.49
2018-02-06T11:39:58.312Z,0.46
2018-02-06T11:41:07.233Z,0.5
2018-02-06T11:42:16.160Z,0.44
2018-02-06T11:43:25.148Z,0.47
2018-02-06T11:44:34.054Z,0.51
2018-02-06T11:45:42.899Z,0.44
2018-02-06T11:46:51.725Z,0.36
2018-02-06T11:48:00.639Z,0.46
2018-02-06T11:49:09.837Z,0.41
2018-02-06T11:50:18.760Z,0.39
2018-02-06T11:51:27.865Z,0.5
2018-02-06T11:52:36.803Z,0.47
2018-02-06T11:53:45.725Z,0.68
2018-02-06T11:54:54.667Z,0.7
2018-02-06T11:56:03.542Z,0.78
2018-02-06T11:57:12.427Z,0.83
2018-02-06T11:58:21.333Z,0.78
2018-02-06T11:59:30.227Z,0.87
2018-02-06T12:00:39.517Z,0.93
2018-02-06T12:01:48.452Z,0.93
2018-02-06T12:02:57.336Z,0.87
2018-02-06T12:04:06.296Z,0.78
2018-02-06T12:05:15.172Z,0.8
2018-02-06T12:06:24.373Z,0.91
2018-02-06T12:07:33.240Z,0.98
2018-02-06T12:08:42.157Z,1
2018-02-06T12:09:51.076Z,0.91
2018-02-06T12:11:00.036Z,0.94
2018-02-06T12:12:09.315Z,0.93
2018-02-06T12:13:18.140Z,0.98
2018-02-06T12:14:26.965Z,0.98
2018-02-06T12:15:35.850Z,0.96
2018-02-06T12:16:45.748Z,1.15
2018-02-06T12:17:55.149Z,1.06
2018-02-06T12:19:04.193Z,1.11
2018-02-06T12:20:13.041Z,1.08
2018-02-06T12:21:21.866Z,1.09
2018-02-06T12:22:30.693Z,1.14
2018-02-06T12:23:39.719Z,1.05
2018-02-06T12:24:48.576Z,1.14
2018-02-06T12:25:57.410Z,1.23
2018-02-06T12:27:06.246Z,1.24
2018-02-06T12:28:15.071Z,1.16
2018-02-06T12:29:23.954Z,1.24
2018-02-06T12:30:33.355Z,1.23
2018-02-06T12:31:42.181Z,1.2
2018-02-06T12:32:51.041Z,1.27
2018-02-06T12:33:59.875Z,1.37
2018-02-06T12:35:09.137Z,1.34
2018-02-06T12:36:18.045Z,1.3
2018-02-06T12:37:26.970Z,1.24
2018-02-06T12:38:35.914Z,1.48
2018-02-06T12:39:44.835Z,1.26
2018-02-06T12:40:54.033Z,1.4
2018-02-06T12:42:02.858Z,1.36
2018-02-06T12:43:11.685Z,1.44
2018-02-06T12:44:20.511Z,1.45
2018-02-06T12:45:29.609Z,1.45
2018-02-06T12:47:08.244Z,1.6
2018-02-06T12:48:17.380Z,1.58
2018-02-06T12:49:26.933Z,1.68
2018-02-06T12:50:36.189Z,1.55
2018-02-06T12:51:45.486Z,1.58
2018-02-06T12:52:54.652Z,1.45
2018-02-06T12:54:03.573Z,1.58
2018-02-06T12:55:12.458Z,1.65
2018-02-06T12:56:21.330Z,1.5
2018-02-06T12:57:30.205Z,1.68
2018-02-06T12:58:39.086Z,1.55
2018-02-06T12:59:47.964Z,1.58
2018-02-06T13:00:57.183Z,1.7
2018-02-06T13:02:06.260Z,1.79
2018-02-06T13:03:15.538Z,1.8
2018-02-06T13:04:24.359Z,1.8
2018-02-06T13:05:33.191Z,1.81
2018-02-06T13:06:42.049Z,1.8
2018-02-06T13:07:50.919Z,1.72
2018-02-06T13:08:59.945Z,1.77
2018-02-06T13:10:08.741Z,1.77
2018-02-06T13:11:17.577Z,1.88
2018-02-06T13:12:26.416Z,1.95
2018-02-06T13:13:35.570Z,1.99
2018-02-06T13:14:44.742Z,1.86
2018-02-06T13:15:54.046Z,1.81
2018-02-06T13:17:02.868Z,1.73
2018-02-06T13:18:11.692Z,1.8
2018-02-06T13:19:20.521Z,1.83
2018-02-06T13:20:29.497Z,1.9
2018-02-06T13:21:38.351Z,1.99
2018-02-06T13:22:47.150Z,1.9
2018-02-06T13:23:55.978Z,2.05
2018-02-06T13:25:04.808Z,2.02
2018-02-06T13:26:13.782Z,2.1
2018-02-06T13:27:22.611Z,2.27
2018-02-06T13:28:31.440Z,2.3
2018-02-06T13:29:40.268Z,2.38
2018-02-06T13:30:49.095Z,2.38
2018-02-06T13:31:58.077Z,2.49
2018-02-06T13:33:06.905Z,2.52
2018-02-06T13:34:15.732Z,2.36
2018-02-06T13:35:24.562Z,2.27
2018-02-06T13:36:33.393Z,2.24
2018-02-06T13:37:42.220Z,2.18
2018-02-06T13:38:51.049Z,2.21
2018-02-06T13:39:59.879Z,2.25
2018-02-06T13:41:08.711Z,2.39
2018-02-06T13:42:17.539Z,2.36
2018-02-06T13:43:26.570Z,2.36
2018-02-06T13:44:35.400Z,2.31
2018-02-06T13:45:44.227Z,2.35
2018-02-06T13:46:53.058Z,2.27
2018-02-06T13:48:01.887Z,2.31
2018-02-06T13:49:10.966Z,2.48
2018-02-06T13:50:19.790Z,2.31
2018-02-06T13:51:28.617Z,2.28
2018-02-06T13:52:37.448Z,2.42
2018-02-06T13:53:46.275Z,2.36
2018-02-06T13:54:55.352Z,2.38
2018-02-06T13:56:04.453Z,2.31
2018-02-06T13:57:13.565Z,2.25
2018-02-06T13:58:22.392Z,2.25
2018-02-06T13:59:31.230Z,2.23
2018-02-06T14:00:40.202Z,2.12
2018-02-06T14:01:49.032Z,2.06
2018-02-06T14:02:57.860Z,2.07
2018-02-06T14:04:06.687Z,2.07
2018-02-06T14:05:15.512Z,2
2018-02-06T14:06:24.442Z,2.03
2018-02-06T14:07:33.541Z,2.06
2018-02-06T14:08:42.368Z,2.1
2018-02-06T14:09:51.473Z,2.25
2018-02-06T14:11:00.303Z,2.23
2018-02-06T14:12:09.430Z,2.16
2018-02-06T14:13:18.259Z,2.07
2018-02-06T14:14:27.085Z,2.27
2018-02-06T14:15:35.955Z,2.35
2018-02-06T14:16:44.753Z,2.28
2018-02-06T14:17:53.579Z,2.28
2018-02-06T14:19:02.409Z,2.18
2018-02-06T14:20:11.238Z,2.12
2018-02-06T14:21:20.064Z,2.2
2018-02-06T14:22:28.895Z,2.25
2018-02-06T14:23:37.931Z,2.3
2018-02-06T14:24:46.750Z,2.28
2018-02-06T14:25:55.577Z,2.34
2018-02-06T14:27:04.404Z,2.18
2018-02-06T14:28:13.231Z,2.06
2018-02-06T14:29:22.358Z,2.07
2018-02-06T14:30:31.189Z,1.98
2018-02-06T14:31:40.018Z,2.03
2018-02-06T14:32:48.851Z,2.06
2018-02-06T14:33:57.672Z,2.03
2018-02-06T14:35:06.649Z,2.06
2018-02-06T14:36:15.477Z,2.1
2018-02-06T14:37:24.307Z,2.12
2018-02-06T14:38:33.131Z,2.14
2018-02-06T14:39:41.959Z,2.14
2018-02-06T14:40:50.786Z,2.2
2018-02-06T14:41:59.614Z,2.3
2018-02-06T14:43:08.443Z,2.14
2018-02-06T14:44:17.272Z,2.23
2018-02-06T14:45:26.101Z,2.27
2018-02-06T14:46:35.027Z,2.3
2018-02-06T14:47:43.856Z,2.28
2018-02-06T14:48:52.960Z,2.3
2018-02-06T14:50:01.799Z,2.36
2018-02-06T14:51:10.628Z,2.39
2018-02-06T14:52:19.606Z,2.38
2018-02-06T14:53:28.433Z,2.43
2018-02-06T14:54:37.540Z,2.49
2018-02-06T14:55:46.644Z,2.48
2018-02-06T14:56:55.474Z,2.43
2018-02-06T14:58:04.403Z,2.3
2018-02-06T14:59:13.231Z,2.16
2018-02-06T15:00:22.060Z,2.18
2018-02-06T15:01:30.890Z,2.27
2018-02-06T15:02:39.716Z,2.21
2018-02-06T15:03:48.845Z,2.34
2018-02-06T15:04:57.673Z,2.31
2018-02-06T15:06:06.504Z,2.27
2018-02-06T15:07:15.330Z,2.21
2018-02-06T15:08:24.157Z,2.21
2018-02-06T15:09:33.287Z,2.23
2018-02-06T15:10:42.115Z,2.2
2018-02-06T15:11:50.944Z,2.21
2018-02-06T15:12:59.771Z,2.17
2018-02-06T15:14:08.600Z,2.3
2018-02-06T15:15:17.478Z,2.28
2018-02-06T15:16:26.307Z,2.21
2018-02-06T15:17:35.136Z,2.28
2018-02-06T15:18:43.962Z,2.18
2018-02-06T15:19:52.791Z,2.14
2018-02-06T15:21:01.724Z,2.2
2018-02-06T15:22:10.552Z,2.21
2018-02-06T15:23:19.380Z,2.21
2018-02-06T15:24:28.210Z,2.1
2018-02-06T15:25:37.037Z,2.12
2018-02-06T15:26:45.966Z,2.07
2018-02-06T15:27:54.792Z,2.05
2018-02-06T15:29:03.616Z,1.99
2018-02-06T15:30:12.444Z,1.98
2018-02-06T15:31:21.269Z,2
2018-02-06T15:32:30.252Z,1.83
2018-02-06T15:33:39.074Z,1.93
2018-02-06T15:34:47.910Z,1.86
2018-02-06T15:35:56.727Z,1.83
2018-02-06T15:37:05.553Z,1.93
2018-02-06T15:38:14.678Z,1.9
2018-02-06T15:39:23.505Z,1.84
2018-02-06T15:40:32.339Z,1.86
2018-02-06T15:41:41.175Z,1.81
2018-02-06T15:42:50.010Z,1.79
2018-02-06T15:43:58.944Z,1.8
2018-02-06T15:45:07.782Z,1.86
2018-02-06T15:46:16.621Z,1.77
2018-02-06T15:47:25.465Z,1.72
2018-02-06T15:48:34.298Z,1.72
2018-02-06T15:49:43.423Z,1.72
2018-02-06T15:50:52.529Z,1.77
2018-02-06T15:52:01.355Z,1.77
2018-02-06T15:53:10.183Z,1.81
2018-02-06T15:54:19.031Z,1.77
2018-02-06T15:55:27.855Z,1.65
2018-02-06T15:56:36.687Z,1.7
2018-02-06T15:57:45.514Z,1.76
2018-02-06T15:58:54.338Z,1.66
2018-02-06T16:00:03.437Z,1.73
2018-02-06T16:01:12.261Z,1.65
2018-02-06T16:02:21.090Z,1.66
2018-02-06T16:03:29.915Z,1.76
2018-02-06T16:04:38.752Z,1.69
2018-02-06T16:05:47.575Z,1.58
2018-02-06T16:06:56.403Z,1.65
2018-02-06T16:08:05.229Z,1.63
2018-02-06T16:09:14.056Z,1.52
2018-02-06T16:10:22.880Z,1.62
2018-02-06T16:11:31.708Z,1.59
2018-02-06T16:12:40.534Z,1.6
2018-02-06T16:13:49.358Z,1.55
2018-02-06T16:14:58.190Z,1.55
2018-02-06T16:16:07.748Z,1.58
2018-02-06T16:17:16.572Z,1.54
2018-02-06T16:18:25.400Z,1.47
2018-02-06T16:19:34.227Z,1.45
2018-02-06T16:20:43.154Z,1.5
2018-02-06T16:21:52.258Z,1.45
2018-02-06T16:23:01.082Z,1.45
2018-02-06T16:24:10.184Z,1.5
2018-02-06T16:25:19.008Z,1.44
2018-02-06T16:26:27.934Z,1.47
2018-02-06T16:27:36.760Z,1.45
2018-02-06T16:28:45.583Z,1.44
2018-02-06T16:29:54.408Z,1.42
2018-02-06T16:31:03.239Z,1.47
2018-02-06T16:32:12.068Z,1.48
2018-02-06T16:33:20.899Z,1.34
2018-02-06T16:34:29.726Z,1.3
2018-02-06T16:35:38.550Z,1.3
2018-02-06T16:36:47.375Z,1.3
2018-02-06T16:37:56.353Z,1.24
2018-02-06T16:39:05.180Z,1.3
2018-02-06T16:40:14.021Z,1.4
2018-02-06T16:41:22.829Z,1.3
2018-02-06T16:42:31.654Z,1.34
2018-02-06T16:43:40.481Z,1.3
2018-02-06T16:44:49.306Z,1.24
2018-02-06T16:45:58.130Z,1.23
2018-02-06T16:47:06.955Z,1.22
2018-02-06T16:48:15.779Z,1.12
2018-02-06T16:49:24.603Z,1.14
2018-02-06T16:50:33.708Z,1.06
2018-02-06T16:51:42.533Z,1.05
2018-02-06T16:52:51.359Z,1.11
2018-02-06T16:54:00.190Z,1.06
2018-02-06T16:55:09.384Z,1.04
2018-02-06T16:56:18.211Z,1.12
2018-02-06T16:57:27.037Z,0.96
2018-02-06T16:58:35.875Z,0.94
2018-02-06T16:59:44.699Z,1
2018-02-06T17:00:53.673Z,0.93
2018-02-06T17:02:02.498Z,0.91
2018-02-06T17:03:11.327Z,0.86
2018-02-06T17:04:20.150Z,0.8
2018-02-06T17:05:28.975Z,0.9
2018-02-06T17:06:37.804Z,0.83